Terminal Aerodrome Forecast
Issued by NWS

Home | Current Version | Previous Version | Text Only | Print | Product List | Glossary On
Versions: 1 2 3 4 5 6 7 8 9 10 11 12 13 14 15 16
725
FTUS44 KLZK 241141
TAFHOT
TAF
KHOT 241141Z 2412/2512 32003KT P6SM OVC070
     FM241600 05008KT P6SM SCT100 BKN250
     FM250000 06003KT P6SM FEW250
     FM250600 00000KT P6SM SKC=

USA.gov is the U.S. government's official web portal to all federal, state and local government web resources and services.